Time;durP1;ratioP1;P1;durP2;ratioP2;P2;SDS_P1;SDS_P2;PMS_P1;PMS_P2;Temp;Humidity;BMP_temperature;BMP_pressure;BME280_temperature;BME280_humidity;BME280_pressure;Samples;Min_cycle;Max_cycle;Signal;HPM_P1;HPM_P2
2022/01/13 00:01:30;;;;;;;124.58;51.90;;;;;;;-3.86;68.22;98875.05;1745926;80;25814;-82
2022/01/13 00:03:49;;;;;;;150.50;54.95;;;;;;;-3.85;68.22;98879.39;1719724;83;27584;-82
2022/01/13 00:06:16;;;;;;;143.10;52.23;;;;;;;-3.84;68.25;98871.41;1712509;83;25650;-81
2022/01/13 00:08:42;;;;;;;109.72;44.48;;;;;;;-3.82;68.33;98875.28;1727641;83;25749;-82
2022/01/13 00:11:09;;;;;;;204.85;122.42;;;;;;;-3.81;68.34;98879.15;1722275;83;26583;-82
2022/01/13 00:14:10;;;;;;;117.87;62.00;;;;;;;-3.80;68.40;98887.92;1727709;83;25710;-82
2022/01/13 00:18:51;;;;;;;103.50;45.65;;;;;;;-3.79;68.52;98877.75;1712234;83;25778;-82
2022/01/13 00:23:53;;;;;;;85.47;38.02;;;;;;;-3.83;68.61;98878.84;1712656;83;25853;-82
2022/01/13 00:26:23;;;;;;;84.50;36.85;;;;;;;-3.84;68.76;98877.14;1712295;83;25804;-82
2022/01/13 00:28:51;;;;;;;152.25;56.90;;;;;;;-3.81;68.94;98878.30;1712483;83;27363;-82
2022/01/13 00:31:25;;;;;;;141.00;65.05;;;;;;;-3.82;68.97;98885.36;1712157;83;25770;-82
2022/01/13 00:33:54;;;;;;;84.55;41.00;;;;;;;-3.81;69.03;98890.17;1712246;83;25749;-83
2022/01/13 00:36:19;;;;;;;82.33;36.80;;;;;;;-3.81;69.15;98890.17;1712070;83;25859;-82
2022/01/13 00:38:46;;;;;;;77.22;34.55;;;;;;;-3.82;69.20;98885.83;1712406;83;25757;-82
2022/01/13 00:41:12;;;;;;;76.62;34.75;;;;;;;-3.81;69.24;98888.86;1712540;83;27523;-83
2022/01/13 00:43:41;;;;;;;78.45;34.98;;;;;;;-3.83;69.27;98869.61;1709081;83;25729;-82
2022/01/13 00:46:09;;;;;;;96.47;38.95;;;;;;;-3.81;69.32;98869.06;1706459;83;25755;-82
2022/01/13 00:48:36;;;;;;;119.35;48.78;;;;;;;-3.81;69.36;98873.02;1678413;85;25819;-82
2022/01/13 00:51:03;;;;;;;87.92;41.20;;;;;;;-3.81;69.50;98865.95;1722548;82;25734;-82
2022/01/13 00:53:29;;;;;;;88.40;39.63;;;;;;;-3.80;69.48;98858.89;1711273;83;28150;-81
2022/01/13 00:55:59;;;;;;;85.28;39.15;;;;;;;-3.78;69.53;98857.02;1689014;84;25245;-82
2022/01/13 00:58:31;;;;;;;87.05;39.67;;;;;;;-3.78;69.54;98862.30;1688975;84;25724;-82
2022/01/13 01:01:00;;;;;;;83.35;39.42;;;;;;;-3.77;69.71;98860.05;1689092;84;25811;-82
2022/01/13 01:03:28;;;;;;;79.05;38.73;;;;;;;-3.76;69.85;98870.98;1711529;83;25745;-82
2022/01/13 01:05:56;;;;;;;80.77;37.35;;;;;;;-3.76;69.86;98863.07;1707819;83;28394;-82
2022/01/13 01:08:25;;;;;;;93.82;41.25;;;;;;;-3.77;69.92;98859.58;1717786;83;25860;-83
2022/01/13 01:10:54;;;;;;;100.92;44.35;;;;;;;-3.79;69.97;98856.64;1717822;83;26131;-82
2022/01/13 01:13:27;;;;;;;95.77;41.35;;;;;;;-3.77;70.13;98851.67;1717797;83;25777;-82
2022/01/13 01:15:55;;;;;;;85.55;40.75;;;;;;;-3.75;70.18;98861.67;1717208;83;25839;-83
2022/01/13 01:21:19;;;;;;;112.00;46.05;;;;;;;-3.71;70.33;98880.80;1717714;83;25767;-82
2022/01/13 01:23:38;;;;;;;86.53;38.45;;;;;;;-3.68;70.41;98874.88;1714288;83;25765;-82
2022/01/13 01:26:08;;;;;;;84.22;38.42;;;;;;;-3.67;70.49;98873.95;1716907;83;26249;-82
2022/01/13 01:28:40;;;;;;;123.18;59.10;;;;;;;-3.66;70.52;98874.80;1716613;83;25655;-83
2022/01/13 01:30:58;;;;;;;104.72;46.80;;;;;;;-3.63;70.56;98875.95;1716041;83;26909;-82
2022/01/13 01:33:25;;;;;;;82.65;37.00;;;;;;;-3.61;70.64;98876.69;1717904;83;25296;-82
2022/01/13 01:35:51;;;;;;;85.17;36.53;;;;;;;-3.58;70.73;98877.84;1717905;83;26521;-82
2022/01/13 01:38:19;;;;;;;87.72;37.30;;;;;;;-3.52;70.75;98889.39;1691087;83;25669;-82
2022/01/13 01:40:46;;;;;;;83.33;36.85;;;;;;;-3.51;70.69;98895.05;1717826;83;25944;-82
2022/01/13 01:43:12;;;;;;;76.85;35.50;;;;;;;-3.49;70.77;98882.59;1717762;83;27512;-82
2022/01/13 01:45:44;;;;;;;79.67;36.90;;;;;;;-3.45;70.74;98876.67;1717663;83;25660;-83
2022/01/13 01:48:08;;;;;;;79.32;37.25;;;;;;;-3.43;70.79;98876.97;1716328;83;25808;-82
2022/01/13 01:50:37;;;;;;;75.70;33.88;;;;;;;-3.41;70.81;98872.92;1717787;83;25829;-82
2022/01/13 01:53:03;;;;;;;71.17;34.30;;;;;;;-3.38;70.85;98878.04;1698347;83;25703;-81
2022/01/13 01:55:29;;;;;;;79.95;34.78;;;;;;;-3.38;70.78;98874.90;1717777;83;28350;-82
2022/01/13 01:57:57;;;;;;;92.78;39.63;;;;;;;-3.38;70.84;98885.96;1692953;83;25964;-82
2022/01/13 02:00:26;;;;;;;85.20;37.28;;;;;;;-3.37;70.87;98879.23;1711445;83;25662;-82
2022/01/13 02:02:55;;;;;;;81.17;37.98;;;;;;;-3.40;70.91;98873.31;1717826;83;28218;-81
2022/01/13 02:05:22;;;;;;;83.05;38.28;;;;;;;-3.41;71.01;98865.01;1717781;83;25821;-82
2022/01/13 02:07:48;;;;;;;74.60;35.33;;;;;;;-3.39;71.09;98861.34;1717816;83;27525;-82
2022/01/13 02:10:17;;;;;;;82.15;39.08;;;;;;;-3.36;71.06;98861.61;1717706;83;26044;-82
2022/01/13 02:12:48;;;;;;;74.37;36.93;;;;;;;-3.36;71.10;98862.46;1717750;83;25713;-82
2022/01/13 02:15:28;;;;;;;83.40;39.30;;;;;;;-3.34;71.12;98865.87;1717037;83;25764;-82
2022/01/13 02:17:44;;;;;;;86.60;40.48;;;;;;;-3.28;71.21;98868.17;1721582;83;25740;-82
2022/01/13 02:20:17;;;;;;;93.22;42.38;;;;;;;-3.31;71.23;98863.05;1735388;82;28913;-81
2022/01/13 02:22:43;;;;;;;81.87;39.23;;;;;;;-3.31;71.29;98876.26;1725470;83;26551;-82
2022/01/13 02:25:16;;;;;;;80.65;39.45;;;;;;;-3.29;71.33;98882.30;1725506;83;25243;-81
2022/01/13 02:27:43;;;;;;;84.22;39.25;;;;;;;-3.26;71.44;98876.00;1725603;83;25775;-81
2022/01/13 02:30:11;;;;;;;80.65;38.63;;;;;;;-3.21;71.42;98865.15;1725562;83;25725;-81
2022/01/13 02:32:38;;;;;;;87.82;42.45;;;;;;;-3.19;71.43;98860.63;1770010;80;27361;-81
2022/01/13 02:35:06;;;;;;;91.20;39.60;;;;;;;-3.17;71.48;98861.40;1769926;81;25828;-82
2022/01/13 02:37:32;;;;;;;101.70;44.65;;;;;;;-3.14;71.54;98866.51;1769918;80;25691;-81
2022/01/13 02:39:59;;;;;;;117.67;46.53;;;;;;;-3.11;71.59;98883.47;1748577;81;26442;-81
2022/01/13 02:42:26;;;;;;;102.25;43.42;;;;;;;-3.07;71.68;98887.17;1706337;84;25663;-82
2022/01/13 02:45:14;;;;;;;79.60;40.30;;;;;;;-3.04;71.74;98861.05;1706304;83;27359;-82
2022/01/13 02:47:59;;;;;;;85.50;39.35;;;;;;;-3.02;71.81;98837.54;1735469;81;25862;-82
2022/01/13 02:50:07;;;;;;;90.28;42.17;;;;;;;-2.96;71.82;98841.63;1734719;82;25762;-82
2022/01/13 02:52:35;;;;;;;94.13;43.48;;;;;;;-2.94;71.81;98839.74;1739393;81;26574;-82
2022/01/13 02:55:02;;;;;;;100.33;45.23;;;;;;;-2.93;71.86;98834.37;1739442;82;25802;-81
2022/01/13 02:57:29;;;;;;;92.08;42.40;;;;;;;-2.91;72.00;98813.99;1739337;82;28227;-82
2022/01/13 02:59:55;;;;;;;85.30;38.53;;;;;;;-2.90;72.12;98804.27;1706160;84;25892;-82
2022/01/13 03:02:29;;;;;;;85.92;40.15;;;;;;;-2.94;72.20;98789.54;1739568;81;25853;-82
2022/01/13 03:04:50;;;;;;;84.97;38.55;;;;;;;-2.99;72.30;98780.56;1749540;81;25802;-82
2022/01/13 03:07:17;;;;;;;85.87;39.48;;;;;;;-2.99;72.47;98784.52;1739452;82;25803;-81
2022/01/13 03:09:43;;;;;;;93.75;44.23;;;;;;;-2.95;72.68;98781.23;1739477;82;28162;-81
2022/01/13 03:12:11;;;;;;;89.47;41.55;;;;;;;-2.92;72.72;98792.94;1739357;81;25890;-81
2022/01/13 03:14:38;;;;;;;87.78;43.17;;;;;;;-2.87;72.81;98808.02;1706380;82;25812;-81
2022/01/13 03:17:05;;;;;;;78.42;39.45;;;;;;;-2.82;72.92;98819.65;1742517;81;25828;-81
2022/01/13 03:19:32;;;;;;;80.42;38.58;;;;;;;-2.79;73.12;98821.64;1747498;81;25734;-82
2022/01/13 03:21:59;;;;;;;75.25;36.53;;;;;;;-2.79;73.14;98819.00;1714324;83;27367;-81
2022/01/13 03:24:26;;;;;;;80.28;36.75;;;;;;;-2.73;73.25;98825.22;1714195;83;25727;-82
2022/01/13 03:26:54;;;;;;;75.55;35.88;;;;;;;-2.67;73.34;98845.15;1714304;82;25753;-81
2022/01/13 03:29:22;;;;;;;81.02;37.63;;;;;;;-2.67;73.46;98834.58;1714239;82;25781;-81
2022/01/13 03:31:49;;;;;;;74.15;35.90;;;;;;;-2.65;73.51;98838.80;1715777;82;25925;-82
2022/01/13 03:34:17;;;;;;;72.62;33.85;;;;;;;-2.62;73.56;98828.52;1714212;83;28239;-82
2022/01/13 03:36:45;;;;;;;74.10;34.95;;;;;;;-2.60;73.71;98830.13;1714185;83;25721;-82
2022/01/13 03:39:13;;;;;;;66.30;33.67;;;;;;;-2.59;73.81;98838.44;1714402;82;25713;-82
2022/01/13 03:41:41;;;;;;;67.90;32.73;;;;;;;-2.55;73.91;98844.39;1714102;83;26374;-82
2022/01/13 03:44:17;;;;;;;67.72;34.53;;;;;;;-2.52;73.95;98842.01;1714280;83;25799;-81
2022/01/13 03:46:38;;;;;;;72.30;33.10;;;;;;;-2.50;73.95;98842.77;1712927;83;27451;-82
2022/01/13 03:49:09;;;;;;;65.40;32.10;;;;;;;-2.46;74.07;98837.67;1714211;82;25752;-82
2022/01/13 03:52:03;;;;;;;72.50;34.63;;;;;;;-2.47;74.10;98838.62;1714324;83;25815;-82
2022/01/13 03:54:39;;;;;;;70.47;36.05;;;;;;;-2.48;74.20;98831.16;1714035;83;25719;-81
2022/01/13 03:57:17;;;;;;;91.32;41.15;;;;;;;-2.43;74.33;98829.56;1670620;83;25827;-82
2022/01/13 04:00:22;;;;;;;90.53;42.85;;;;;;;-2.41;74.34;98828.97;1712622;83;27364;-82
2022/01/13 04:02:49;;;;;;;120.08;48.35;;;;;;;-2.37;74.34;98819.44;1714219;82;25697;-82
2022/01/13 04:05:16;;;;;;;110.57;47.43;;;;;;;-2.35;74.39;98816.70;1714277;82;25708;-82
2022/01/13 04:07:43;;;;;;;102.22;47.23;;;;;;;-2.31;74.47;98815.56;1714262;83;25863;-82
2022/01/13 04:10:50;;;;;;;98.65;47.75;;;;;;;-2.35;74.59;98812.26;1714306;83;25743;-82
2022/01/13 04:13:43;;;;;;;96.95;45.55;;;;;;;-2.34;74.65;98806.50;1714241;83;27370;-82
2022/01/13 04:15:51;;;;;;;149.75;76.35;;;;;;;-2.33;74.81;98809.05;1709779;83;25803;-83
2022/01/13 04:18:18;;;;;;;141.73;69.27;;;;;;;-2.30;74.83;98817.27;1708217;83;25797;-83
2022/01/13 04:20:44;;;;;;;143.32;66.10;;;;;;;-2.25;74.85;98820.45;1739458;82;26458;-82
2022/01/13 04:23:12;;;;;;;134.10;62.62;;;;;;;-2.22;74.95;98809.69;1706026;83;25756;-82
2022/01/13 04:25:43;;;;;;;107.32;51.53;;;;;;;-2.15;75.05;98808.34;1706442;82;28148;-82
2022/01/13 04:28:09;;;;;;;83.78;42.43;;;;;;;-2.11;75.12;98813.81;1739452;81;25706;-82
2022/01/13 04:30:47;;;;;;;77.30;36.68;;;;;;;-2.10;75.17;98803.61;1706314;82;25754;-82
2022/01/13 04:33:14;;;;;;;64.07;33.50;;;;;;;-2.09;75.17;98811.08;1706312;82;26606;-82
2022/01/13 04:35:42;;;;;;;69.20;32.48;;;;;;;-2.05;75.22;98802.83;1739484;81;25713;-83
2022/01/13 04:38:08;;;;;;;65.45;32.58;;;;;;;-2.03;75.29;98795.64;1739507;82;28166;-83
2022/01/13 04:40:42;;;;;;;55.30;29.48;;;;;;;-2.00;75.34;98790.63;1739426;82;25678;-83
2022/01/13 04:43:03;;;;;;;53.42;27.52;;;;;;;-1.93;75.37;98799.86;1738130;82;25689;-82
2022/01/13 04:45:30;;;;;;;54.08;26.45;;;;;;;-1.86;75.34;98802.03;1706403;84;26452;-82
2022/01/13 04:47:57;;;;;;;52.45;27.48;;;;;;;-1.77;75.35;98798.39;1739184;82;26287;-82
2022/01/13 04:50:25;;;;;;;52.45;24.60;;;;;;;-1.72;75.35;98781.27;1739409;81;27532;-82
2022/01/13 04:52:52;;;;;;;45.48;21.40;;;;;;;-1.70;75.34;98777.20;1739522;82;25754;-82
2022/01/13 04:55:24;;;;;;;38.83;21.15;;;;;;;-1.63;75.43;98778.48;1706300;82;25709;-82
2022/01/13 04:57:47;;;;;;;44.70;21.68;;;;;;;-1.56;75.44;98768.69;1705485;83;25865;-82
2022/01/13 05:00:14;;;;;;;45.88;20.97;;;;;;;-1.53;75.40;98777.76;1706424;83;25853;-82
2022/01/13 05:02:41;;;;;;;37.13;18.67;;;;;;;-1.49;75.41;98773.11;1739517;82;27346;-83
2022/01/13 05:05:08;;;;;;;36.55;18.67;;;;;;;-1.44;75.35;98764.36;1711071;82;25761;-82
2022/01/13 05:07:35;;;;;;;35.35;17.50;;;;;;;-1.37;75.37;98770.11;1735508;81;25737;-83
2022/01/13 05:10:04;;;;;;;30.05;15.80;;;;;;;-1.31;75.25;98771.86;1735763;81;26390;-82
2022/01/13 05:12:37;;;;;;;31.33;16.62;;;;;;;-1.27;75.23;98786.60;1770041;81;25796;-83
2022/01/13 05:15:05;;;;;;;34.08;17.02;;;;;;;-1.20;75.29;98790.52;1769004;81;27720;-83
2022/01/13 05:17:59;;;;;;;32.65;15.68;;;;;;;-1.15;75.10;98789.74;1769928;80;25767;-83
2022/01/13 05:20:15;;;;;;;29.55;15.15;;;;;;;-1.09;75.21;98784.52;1730867;81;25797;-82
2022/01/13 05:22:38;;;;;;;34.08;17.73;;;;;;;-1.03;75.27;98778.77;1734801;82;25904;-83
2022/01/13 05:25:05;;;;;;;22.62;12.30;;;;;;;-0.98;75.21;98776.67;1735709;81;26370;-83
2022/01/13 05:27:32;;;;;;;28.40;13.65;;;;;;;-0.92;75.12;98782.01;1735807;81;27300;-83
2022/01/13 05:30:01;;;;;;;27.93;16.07;;;;;;;-0.87;75.08;98789.17;1735669;82;25248;-83
2022/01/13 05:32:27;;;;;;;36.05;17.23;;;;;;;-0.82;75.12;98782.58;1735711;81;25796;-83
2022/01/13 05:34:54;;;;;;;34.18;16.75;;;;;;;-0.79;75.07;98780.20;1735822;81;25894;-83
2022/01/13 05:37:20;;;;;;;29.32;15.40;;;;;;;-0.76;74.99;98771.56;1735865;82;26302;-82
2022/01/13 05:39:47;;;;;;;56.53;28.45;;;;;;;-0.72;74.91;98770.03;1735783;82;27343;-83
2022/01/13 05:42:14;;;;;;;54.25;24.00;;;;;;;-0.69;74.92;98767.99;1769982;81;25721;-83
2022/01/13 05:44:41;;;;;;;37.33;19.45;;;;;;;-0.64;74.83;98782.27;1769999;80;26418;-83
2022/01/13 05:47:11;;;;;;;29.50;15.78;;;;;;;-0.63;74.70;98776.00;1770019;81;25777;-83
2022/01/13 05:49:40;;;;;;;27.37;15.05;;;;;;;-0.61;74.63;98784.23;1769992;80;25305;-83
2022/01/13 05:52:12;;;;;;;27.25;14.28;;;;;;;-0.60;74.48;98784.58;1735756;81;27577;-83
2022/01/13 05:54:40;;;;;;;26.90;15.43;;;;;;;-0.59;74.42;98783.62;1770110;80;25812;-83
2022/01/13 05:57:06;;;;;;;25.15;14.45;;;;;;;;;;1770000;81;26587;-83
2022/01/13 05:59:33;;;;;;;31.10;17.05;;;;;;;-0.57;74.33;98778.21;1770045;81;26567;-83
2022/01/13 06:02:00;;;;;;;33.08;16.50;;;;;;;-0.57;74.27;98779.06;1770027;80;25747;-83
2022/01/13 06:04:26;;;;;;;34.98;16.57;;;;;;;-0.54;74.24;98776.20;1769966;81;27549;-84
2022/01/13 06:06:53;;;;;;;37.78;18.65;;;;;;;-0.53;74.22;98772.59;1769869;79;25749;-84
2022/01/13 06:09:20;;;;;;;32.83;17.32;;;;;;;-0.50;74.18;98776.84;1770067;81;25853;-83
2022/01/13 06:11:59;;;;;;;29.98;15.53;;;;;;;-0.50;74.17;98772.86;1770007;80;26499;-84
2022/01/13 06:14:22;;;;;;;37.23;19.98;;;;;;;-0.49;74.12;98775.41;1768499;81;25693;-83
2022/01/13 06:16:48;;;;;;;62.23;28.30;;;;;;;-0.49;74.10;98775.41;1769956;80;27464;-83
2022/01/13 06:19:15;;;;;;;67.37;34.58;;;;;;;-0.47;74.08;98766.83;1776406;80;25229;-83
2022/01/13 06:21:41;;;;;;;68.15;41.13;;;;;;;-0.45;74.12;98769.38;1778212;80;25797;-83
2022/01/13 06:24:08;;;;;;;50.23;25.02;;;;;;;-0.42;74.14;98771.83;1778111;80;25720;-84
2022/01/13 06:26:35;;;;;;;39.63;20.95;;;;;;;-0.41;74.09;98770.39;1778366;80;25698;-83
2022/01/13 06:29:01;;;;;;;46.05;21.10;;;;;;;-0.40;74.02;98773.42;1778243;80;27455;-83
2022/01/13 06:31:28;;;;;;;41.30;19.67;;;;;;;-0.37;73.97;98773.69;1778143;80;25724;-83
2022/01/13 06:33:55;;;;;;;35.30;17.92;;;;;;;-0.36;73.93;98784.16;1778193;79;25654;-84
2022/01/13 06:36:21;;;;;;;33.80;17.95;;;;;;;-0.32;73.94;98782.62;1778232;80;25903;-84
2022/01/13 06:38:50;;;;;;;35.05;16.93;;;;;;;-0.30;74.01;98789.52;1778296;80;25257;-83
2022/01/13 06:41:18;;;;;;;37.40;18.07;;;;;;;-0.24;73.91;98792.23;1777965;80;27429;-84
2022/01/13 06:43:45;;;;;;;38.13;18.62;;;;;;;-0.23;73.78;98790.77;1778138;80;25754;-83
2022/01/13 06:46:14;;;;;;;41.33;18.60;;;;;;;-0.21;73.71;98780.04;1778389;80;25806;-83
2022/01/13 06:48:41;;;;;;;33.53;17.45;;;;;;;-0.20;73.66;98773.78;1778416;80;25927;-83
2022/01/13 06:51:07;;;;;;;36.03;19.95;;;;;;;-0.17;73.63;98778.88;1778505;80;26482;-83
2022/01/13 06:53:34;;;;;;;39.08;20.57;;;;;;;-0.15;73.61;98781.78;1778174;80;27468;-83
2022/01/13 06:56:01;;;;;;;36.48;18.50;;;;;;;-0.13;73.55;98769.73;1778290;80;25731;-83
2022/01/13 06:58:28;;;;;;;34.50;17.05;;;;;;;-0.12;73.51;98774.09;1778475;80;26190;-85
2022/01/13 07:00:55;;;;;;;31.90;16.93;;;;;;;-0.11;73.45;98773.95;1743798;82;26010;-84
2022/01/13 07:03:22;;;;;;;32.25;16.40;;;;;;;-0.11;73.36;98775.75;1744115;81;25793;-84
2022/01/13 07:05:48;;;;;;;30.17;15.72;;;;;;;-0.10;73.34;98775.65;1744060;82;27396;-83
2022/01/13 07:08:15;;;;;;;30.45;15.85;;;;;;;-0.08;73.32;98778.20;1743684;81;25776;-84
2022/01/13 07:10:42;;;;;;;27.50;14.63;;;;;;;-0.06;73.31;98788.23;1744036;81;25239;-83
2022/01/13 07:13:09;;;;;;;25.50;14.18;;;;;;;0.05;74.00;98788.77;1744042;82;25771;-83
2022/01/13 07:15:35;;;;;;;27.52;13.45;;;;;;;0.16;73.97;98794.98;1744170;82;25629;-83
2022/01/13 07:18:02;;;;;;;37.83;17.05;;;;;;;0.25;73.63;98786.34;1742620;81;27538;-83
2022/01/13 07:20:29;;;;;;;55.28;20.85;;;;;;;0.28;73.28;98780.80;1735653;81;25769;-84
2022/01/13 07:22:56;;;;;;;52.03;20.17;;;;;;;0.29;73.13;98786.48;1735928;82;25757;-84
2022/01/13 07:25:22;;;;;;;59.08;22.05;;;;;;;0.29;72.96;98782.50;1735830;81;25773;-84
2022/01/13 07:27:49;;;;;;;46.60;20.27;;;;;;;0.28;72.83;98779.48;1735928;81;26545;-83
2022/01/13 07:30:16;;;;;;;49.08;20.75;;;;;;;0.28;72.79;98769.33;1770109;81;28164;-83
2022/01/13 07:32:42;;;;;;;48.33;20.43;;;;;;;0.29;72.73;98773.20;1770092;80;26311;-84
2022/01/13 07:35:10;;;;;;;38.78;18.25;;;;;;;0.29;72.66;98771.88;1770169;80;25723;-83
2022/01/13 07:37:39;;;;;;;35.13;17.23;;;;;;;0.29;72.65;98777.19;1735798;81;25688;-84
2022/01/13 07:40:08;;;;;;;31.30;16.32;;;;;;;0.29;72.60;98785.64;1736013;81;25784;-85
2022/01/13 07:42:36;;;;;;;37.13;18.48;;;;;;;0.30;72.58;98785.53;1735779;82;27470;-86
2022/01/13 07:45:03;;;;;;;38.98;17.65;;;;;;;0.36;72.59;98798.34;1769945;79;25722;-85
2022/01/13 07:47:30;;;;;;;29.77;15.50;;;;;;;0.40;72.49;98800.78;1752906;80;25254;-85
2022/01/13 07:49:56;;;;;;;35.45;16.62;;;;;;;0.44;72.42;98800.92;1739609;82;25805;-85
2022/01/13 07:52:25;;;;;;;34.85;16.17;;;;;;;0.48;72.37;98798.42;1739517;81;26245;-84
2022/01/13 07:54:51;;;;;;;36.83;15.72;;;;;;;0.51;72.30;98788.87;1739404;82;27392;-84
2022/01/13 07:57:18;;;;;;;36.05;16.65;;;;;;;0.54;72.26;98789.97;1739464;82;25666;-84
2022/01/13 07:59:44;;;;;;;45.65;17.32;;;;;;;0.57;72.26;98791.08;1739565;81;25741;-84
2022/01/13 08:02:11;;;;;;;34.53;15.65;;;;;;;0.60;72.18;98784.22;1739556;81;25776;-85
2022/01/13 08:04:37;;;;;;;30.88;14.63;;;;;;;0.66;72.15;98784.59;1739606;82;25748;-84
2022/01/13 08:07:04;;;;;;;28.95;13.83;;;;;;;0.72;72.10;98782.77;1739549;81;27419;-84
2022/01/13 08:09:30;;;;;;;27.82;12.78;;;;;;;0.77;72.05;98765.16;1739219;81;25830;-85
2022/01/13 08:11:57;;;;;;;32.98;14.23;;;;;;;0.79;71.93;98752.61;1739616;81;25749;-84
2022/01/13 08:14:23;;;;;;;27.80;13.00;;;;;;;0.79;71.84;98747.77;1739637;82;25795;-84
2022/01/13 08:16:55;;;;;;;24.98;13.60;;;;;;;0.82;71.79;98749.72;1740292;81;25737;-85
2022/01/13 08:22:03;;;;;;;26.57;13.80;;;;;;;0.89;71.71;98741.63;1735857;81;25730;-85
2022/01/13 08:24:30;;;;;;;25.02;12.28;;;;;;;0.93;71.63;98731.13;1770082;81;25698;-84
2022/01/13 08:26:57;;;;;;;24.35;13.55;;;;;;;0.98;71.58;98724.95;1735854;82;25773;-84
2022/01/13 08:29:23;;;;;;;26.73;13.30;;;;;;;0.99;71.52;98722.66;1770242;80;26243;-84
2022/01/13 08:31:50;;;;;;;23.12;12.82;;;;;;;1.00;71.42;98703.08;1735911;81;27524;-84
2022/01/13 08:34:17;;;;;;;19.27;11.03;;;;;;;1.03;71.40;98697.53;1769964;81;26115;-84
2022/01/13 08:36:45;;;;;;;23.30;12.33;;;;;;;1.05;71.33;98700.92;1735911;82;25739;-86
2022/01/13 08:39:12;;;;;;;23.55;11.18;;;;;;;1.05;71.28;98708.90;1770087;80;25910;-85
2022/01/13 08:41:40;;;;;;;24.07;12.50;;;;;;;1.07;71.23;98712.77;1735917;82;25731;-84
2022/01/13 08:44:07;;;;;;;24.02;11.78;;;;;;;1.09;71.15;98714.32;1769834;80;27421;-85
2022/01/13 08:46:33;;;;;;;23.05;11.60;;;;;;;1.12;71.13;98718.56;1735743;81;25729;-86
2022/01/13 08:49:00;;;;;;;20.65;10.60;;;;;;;1.15;71.06;98726.79;1770054;80;25779;-84
2022/01/13 08:51:27;;;;;;;21.33;11.25;;;;;;;1.18;71.01;98727.88;1735795;81;25765;-84
2022/01/13 08:53:53;;;;;;;20.62;10.23;;;;;;;1.22;71.00;98732.83;1770182;80;25232;-85
2022/01/13 08:56:21;;;;;;;19.52;10.45;;;;;;;1.26;70.92;98734.28;1735543;82;27509;-84
2022/01/13 08:58:48;;;;;;;23.10;12.40;;;;;;;1.28;70.83;98736.83;1769990;80;25734;-84
2022/01/13 09:01:15;;;;;;;21.48;11.50;;;;;;;1.31;70.78;98739.25;1770103;81;25711;-84
2022/01/13 09:03:41;;;;;;;19.65;10.08;;;;;;;1.33;70.74;98746.60;1735838;81;25699;-84
2022/01/13 09:06:08;;;;;;;18.48;9.63;;;;;;;1.34;70.71;98735.84;1770086;80;25628;-85
2022/01/13 09:08:35;;;;;;;19.15;10.65;;;;;;;1.35;70.67;98732.70;1769882;80;27420;-85
2022/01/13 09:11:02;;;;;;;20.68;10.88;;;;;;;1.38;70.62;98724.48;1769962;80;26002;-84
2022/01/13 09:13:35;;;;;;;18.98;10.53;;;;;;;1.42;70.54;98721.95;1770002;80;25855;-84
2022/01/13 09:15:59;;;;;;;21.70;11.50;;;;;;;1.49;70.54;98723.14;1768994;80;25740;-86
2022/01/13 09:18:58;;;;;;;24.25;11.03;;;;;;;1.54;70.45;98718.80;1736069;81;25704;-85
2022/01/13 09:21:03;;;;;;;21.50;11.40;;;;;;;1.57;70.34;98722.03;1739470;82;27454;-84
2022/01/13 09:23:31;;;;;;;21.48;11.60;;;;;;;1.60;70.20;98712.48;1743981;81;26120;-85
2022/01/13 09:25:58;;;;;;;23.20;11.97;;;;;;;1.64;70.18;98715.27;1744019;82;25685;-85
2022/01/13 09:28:25;;;;;;;23.20;12.55;;;;;;;1.67;70.12;98715.03;1743951;81;25724;-85
2022/01/13 09:30:51;;;;;;;22.60;11.90;;;;;;;1.69;70.00;98706.92;1744040;82;25242;-85
2022/01/13 09:33:18;;;;;;;23.75;11.65;;;;;;;1.72;69.99;98708.83;1743985;81;27427;-85
2022/01/13 09:35:44;;;;;;;23.67;11.93;;;;;;;1.74;69.90;98700.23;1743918;81;25784;-85
2022/01/13 09:38:11;;;;;;;22.37;12.50;;;;;;;1.76;69.88;98700.97;1743984;82;25756;-89
2022/01/13 09:40:38;;;;;;;20.60;11.05;;;;;;;1.79;69.88;98699.39;1743993;82;25799;-86
2022/01/13 09:43:05;;;;;;;27.15;11.97;;;;;;;1.81;69.76;98698.76;1744053;81;25743;-85
2022/01/13 09:45:32;;;;;;;22.35;11.65;;;;;;;1.84;69.69;98696.34;1743932;82;28275;-86
2022/01/13 09:47:59;;;;;;;23.70;12.43;;;;;;;1.85;69.66;98677.22;1743894;82;25884;-85
2022/01/13 09:50:26;;;;;;;25.27;12.07;;;;;;;1.85;69.55;98683.88;1743589;82;36298;-86
2022/01/13 09:52:53;;;;;;;25.92;12.98;;;;;;;1.88;69.56;98687.63;1743732;82;25765;-84
2022/01/13 09:55:20;;;;;;;26.50;11.95;;;;;;;1.89;69.67;98695.97;1741639;81;25826;-84
2022/01/13 09:57:50;;;;;;;27.73;13.65;;;;;;;1.96;69.60;98705.14;1706684;84;28430;-84
2022/01/13 10:00:22;;;;;;;21.70;11.65;;;;;;;1.98;69.44;98702.72;1706234;83;25841;-84
2022/01/13 10:02:49;;;;;;;20.88;10.63;;;;;;;2.00;69.33;98698.59;1706795;84;25712;-84
2022/01/13 10:05:21;;;;;;;22.25;10.63;;;;;;;2.02;69.27;98687.34;1706610;84;25797;-84
2022/01/13 10:07:50;;;;;;;19.12;10.35;;;;;;;2.07;69.25;98694.44;1706767;84;25737;-84
2022/01/13 10:10:20;;;;;;;19.23;10.13;;;;;;;2.13;69.22;98684.63;1678202;84;27152;-84
2022/01/13 10:12:52;;;;;;;20.45;10.68;;;;;;;2.16;69.17;98681.23;1706556;84;25686;-84
2022/01/13 10:18:06;;;;;;;16.70;9.30;;;;;;;2.26;69.04;98671.98;1706621;84;26454;-84
2022/01/13 10:20:33;;;;;;;17.02;8.98;;;;;;;2.32;68.98;98662.13;1702431;84;25410;-86
2022/01/13 10:23:10;;;;;;;18.20;8.70;;;;;;;2.35;68.89;98665.02;1701470;84;27446;-85
2022/01/13 10:25:40;;;;;;;18.82;9.23;;;;;;;2.38;68.77;98676.28;1698277;84;25778;-85
2022/01/13 10:28:21;;;;;;;22.60;10.20;;;;;;;2.42;68.66;98670.18;1701502;84;25801;-86
2022/01/13 10:30:53;;;;;;;19.48;10.98;;;;;;;2.44;68.56;98665.09;1727064;82;26538;-86
2022/01/13 10:33:28;;;;;;;;;;;;;;;2.51;68.50;98649.44;1742509;81;25705;-85
2022/01/13 10:36:08;;;;;;;18.75;9.98;;;;;;;2.54;68.35;98631.34;1665638;84;27417;-88
2022/01/13 10:38:57;;;;;;;21.87;10.40;;;;;;;2.61;68.41;98637.49;1708785;82;25904;-85
2022/01/13 10:41:37;;;;;;;16.45;9.50;;;;;;;2.67;68.30;98652.95;1708744;82;25296;-85
2022/01/13 10:44:21;;;;;;;18.60;9.83;;;;;;;2.69;68.12;98661.66;1707441;82;25814;-86
2022/01/13 10:47:04;;;;;;;18.17;9.43;;;;;;;2.72;68.09;98659.59;1708944;83;25739;-85
2022/01/13 10:49:43;;;;;;;17.77;9.88;;;;;;;2.74;67.97;98657.64;1708777;83;28173;-86
2022/01/13 10:52:26;;;;;;;19.55;9.10;;;;;;;2.78;67.89;98652.37;1708769;82;25269;-86
2022/01/13 10:55:05;;;;;;;17.25;9.88;;;;;;;2.84;67.80;98656.35;1708936;82;25306;-87
2022/01/13 10:57:32;;;;;;;15.55;8.58;;;;;;;2.91;67.78;98642.83;1705487;82;25781;-84
2022/01/13 10:59:59;;;;;;;16.32;9.03;;;;;;;2.96;67.72;98629.95;1708925;82;25759;-86
2022/01/13 11:02:27;;;;;;;17.10;9.23;;;;;;;2.97;67.56;98626.31;1708838;82;27363;-86
2022/01/13 11:04:54;;;;;;;15.88;8.73;;;;;;;3.00;67.33;98627.38;1708672;82;25691;-85
2022/01/13 11:07:24;;;;;;;15.45;9.00;;;;;;;3.04;67.38;98616.78;1708777;82;25702;-85
2022/01/13 11:09:57;;;;;;;24.37;12.43;;;;;;;3.07;67.27;98612.52;1708693;83;25681;-86
2022/01/13 11:12:36;;;;;;;21.17;10.95;;;;;;;3.10;67.22;98613.59;1739070;81;25761;-87
2022/01/13 11:15:06;;;;;;;36.13;15.75;;;;;;;3.12;67.22;98611.63;1739442;81;27625;-87
2022/01/13 11:17:38;;;;;;;29.40;14.47;;;;;;;3.14;67.08;98594.97;1739245;81;26056;-87
2022/01/13 11:20:09;;;;;;;26.93;13.48;;;;;;;3.16;67.04;98599.69;1749508;81;26147;-87
2022/01/13 11:22:39;;;;;;;36.50;16.07;;;;;;;3.17;66.91;98604.05;1763729;81;25849;-88
2022/01/13 11:25:10;;;;;;;36.17;15.53;;;;;;;3.20;66.89;98600.27;1763707;81;25719;-86
2022/01/13 11:27:38;;;;;;;61.35;24.57;;;;;;;3.22;66.86;98599.16;1763580;81;27565;-87
2022/01/13 11:30:10;;;;;;;47.43;20.70;;;;;;;3.24;66.80;98597.20;1763580;81;25651;-86
2022/01/13 11:32:42;;;;;;;46.90;20.72;;;;;;;3.26;66.77;98593.88;1763880;81;26230;-86
2022/01/13 11:35:13;;;;;;;42.25;18.00;;;;;;;3.27;66.59;98585.39;1763956;81;25686;-87
2022/01/13 11:37:41;;;;;;;40.63;19.02;;;;;;;3.28;66.74;98581.73;1763792;81;25704;-86
2022/01/13 11:40:28;;;;;;;26.65;12.40;;;;;;;3.32;66.75;98575.16;1763815;81;27491;-89
2022/01/13 11:42:56;;;;;;;28.25;13.68;;;;;;;3.37;66.78;98570.27;1636730;87;25818;-85